createdAt,value
2018-04-17T00:01:29.621Z,12.93
2018-04-17T00:03:57.187Z,13.53
2018-04-17T00:06:24.655Z,11.37
2018-04-17T00:08:52.134Z,15.27
2018-04-17T00:11:19.605Z,28.30
2018-04-17T00:13:47.077Z,14.67
2018-04-17T00:16:15.332Z,15.13
2018-04-17T00:18:42.786Z,14.93
2018-04-17T00:21:10.245Z,15.90
2018-04-17T00:23:37.711Z,17.33
2018-04-17T00:26:05.231Z,10.20
2018-04-17T00:28:33.481Z,16.27
2018-04-17T00:31:00.932Z,23.67
2018-04-17T00:33:28.415Z,18.50
2018-04-17T00:35:57.292Z,15.43
2018-04-17T00:38:24.778Z,19.83
2018-04-17T00:40:53.015Z,13.87
2018-04-17T00:43:20.536Z,14.03
2018-04-17T00:45:48.001Z,13.17
2018-04-17T00:48:15.489Z,15.53
2018-04-17T00:50:42.981Z,17.10
2018-04-17T00:53:23.154Z,17.87
2018-04-17T00:55:51.446Z,18.47
2018-04-17T00:58:18.937Z,15.20
2018-04-17T01:00:47.183Z,13.37
2018-04-17T01:03:14.665Z,14.93
2018-04-17T01:05:42.135Z,42.80
2018-04-17T01:08:09.620Z,21.47
2018-04-17T01:10:37.096Z,23.97
2018-04-17T01:13:05.339Z,19.10
2018-04-17T01:15:33.613Z,19.07
2018-04-17T01:18:01.110Z,24.13
2018-04-17T01:20:29.390Z,17.17
2018-04-17T01:22:56.852Z,22.97
2018-04-17T01:25:24.346Z,24.37
2018-04-17T01:27:51.855Z,27.90
2018-04-17T01:30:20.111Z,17.60
2018-04-17T01:32:47.592Z,20.20
2018-04-17T01:35:15.854Z,18.83
2018-04-17T01:37:44.096Z,17.40
2018-04-17T01:40:11.570Z,19.57
2018-04-17T01:42:39.033Z,18.23
2018-04-17T01:45:06.533Z,21.00
2018-04-17T01:47:34.000Z,28.00
2018-04-17T01:50:01.489Z,26.33
2018-04-17T01:52:28.956Z,20.50
2018-04-17T01:54:56.427Z,25.90
2018-04-17T01:57:23.889Z,25.53
2018-04-17T01:59:51.384Z,29.80
2018-04-17T02:02:19.622Z,28.33
2018-04-17T02:04:47.077Z,31.40
2018-04-17T02:07:14.561Z,26.50
2018-04-17T02:09:42.793Z,18.13
2018-04-17T02:12:10.285Z,25.87
2018-04-17T02:14:37.764Z,27.90
2018-04-17T02:17:06.017Z,22.73
2018-04-17T02:19:33.524Z,23.37
2018-04-17T02:22:01.048Z,16.23
2018-04-17T02:24:28.508Z,21.67
2018-04-17T02:26:56.757Z,22.13
2018-04-17T02:29:24.248Z,42.57
2018-04-17T02:31:52.495Z,20.57
2018-04-17T02:34:20.033Z,31.30
2018-04-17T02:36:47.518Z,24.20
2018-04-17T02:39:14.988Z,28.53
2018-04-17T02:41:42.494Z,23.90
2018-04-17T02:44:10.060Z,18.23
2018-04-17T02:46:37.518Z,25.70
2018-04-17T02:49:05.024Z,19.93
2018-04-17T02:51:32.531Z,18.93
2018-04-17T02:53:59.993Z,20.60
2018-04-17T02:56:27.507Z,27.30
2018-04-17T02:58:55.779Z,22.90
2018-04-17T03:01:23.254Z,31.30
2018-04-17T03:03:51.520Z,23.93
2018-04-17T03:06:18.991Z,22.63
2018-04-17T03:08:47.232Z,32.93
2018-04-17T03:11:14.695Z,20.57
2018-04-17T03:13:42.200Z,20.53
2018-04-17T03:16:09.708Z,31.20
2018-04-17T03:18:37.243Z,29.50
2018-04-17T03:21:04.717Z,23.80
2018-04-17T03:23:32.204Z,19.87
2018-04-17T03:26:00.153Z,19.40
2018-04-17T03:28:27.630Z,16.20
2018-04-17T03:30:55.955Z,22.87
2018-04-17T03:33:23.425Z,24.77
2018-04-17T03:35:51.389Z,24.93
2018-04-17T03:38:18.854Z,19.80
2018-04-17T03:40:46.370Z,19.70
2018-04-17T03:43:14.632Z,26.60
2018-04-17T03:45:42.118Z,29.87
2018-04-17T03:48:09.601Z,19.13
2018-04-17T03:50:37.073Z,27.70
2018-04-17T03:53:04.560Z,18.93
2018-04-17T03:55:32.032Z,29.93
2018-04-17T03:58:00.272Z,25.07
2018-04-17T04:00:27.742Z,31.03
2018-04-17T04:02:55.235Z,29.83
2018-04-17T04:05:23.488Z,36.33
2018-04-17T04:07:50.977Z,34.47
2018-04-17T04:10:18.458Z,38.10
2018-04-17T04:12:45.943Z,34.13
2018-04-17T04:15:13.401Z,45.97
2018-04-17T04:17:52.729Z,56.00
2018-04-17T04:20:32.117Z,46.70
2018-04-17T04:23:12.048Z,60.97
2018-04-17T04:28:48.974Z,51.50
2018-04-17T04:31:16.490Z,41.20
2018-04-17T04:33:44.007Z,41.43
2018-04-17T04:36:11.507Z,41.50
2018-04-17T04:38:39.019Z,37.53
2018-04-17T04:41:06.495Z,31.33
2018-04-17T04:43:33.973Z,44.93
2018-04-17T04:46:01.465Z,43.40
2018-04-17T04:48:29.817Z,36.73
2018-04-17T04:50:57.322Z,33.00
2018-04-17T04:53:24.808Z,30.57
2018-04-17T04:55:52.590Z,38.23
2018-04-17T04:58:20.060Z,48.80
2018-04-17T05:00:47.549Z,43.50
2018-04-17T05:03:15.045Z,40.77
2018-04-17T05:05:42.516Z,75.73
2018-04-17T05:08:09.999Z,48.07
2018-04-17T05:10:37.464Z,44.00
2018-04-17T05:13:04.949Z,44.17
2018-04-17T05:15:33.206Z,36.70
2018-04-17T05:18:00.729Z,37.27
2018-04-17T05:20:28.215Z,41.87
2018-04-17T05:22:55.693Z,40.60
2018-04-17T05:25:23.960Z,38.97
2018-04-17T05:27:51.519Z,52.50
2018-04-17T05:30:19.010Z,43.27
2018-04-17T05:32:46.477Z,44.40
2018-04-17T05:35:13.996Z,46.17
2018-04-17T05:37:41.504Z,46.90
2018-04-17T05:40:09.134Z,42.80
2018-04-17T05:42:36.568Z,35.63
2018-04-17T05:45:04.056Z,22.73
2018-04-17T05:47:32.306Z,39.40
2018-04-17T05:49:59.814Z,25.87
2018-04-17T05:52:27.314Z,26.13
2018-04-17T05:54:54.817Z,36.13
2018-04-17T05:57:23.057Z,20.90
2018-04-17T05:59:50.573Z,22.00
2018-04-17T06:02:18.066Z,19.07
2018-04-17T06:04:45.560Z,30.17
2018-04-17T06:07:13.029Z,25.70
2018-04-17T06:09:40.537Z,19.93
2018-04-17T06:12:08.026Z,19.87
2018-04-17T06:14:35.522Z,26.20
2018-04-17T06:17:03.013Z,28.37
2018-04-17T06:19:30.548Z,25.27
2018-04-17T06:21:58.031Z,38.00
2018-04-17T06:24:25.509Z,31.87
2018-04-17T06:26:52.993Z,23.13
2018-04-17T06:29:21.232Z,33.63
2018-04-17T06:31:48.738Z,34.50
2018-04-17T06:34:17.012Z,28.30
2018-04-17T06:36:45.274Z,31.83
2018-04-17T06:39:12.790Z,41.90
2018-04-17T06:41:40.353Z,42.87
2018-04-17T06:44:08.742Z,25.90
2018-04-17T06:46:36.228Z,26.20
2018-04-17T06:49:03.784Z,25.60
2018-04-17T06:51:31.293Z,28.67
2018-04-17T06:53:58.826Z,23.37
2018-04-17T06:56:27.154Z,26.30
2018-04-17T06:58:54.666Z,21.37
2018-04-17T07:01:22.179Z,26.33
2018-04-17T07:03:49.674Z,29.00
2018-04-17T07:06:17.943Z,24.53
2018-04-17T07:08:45.425Z,22.40
2018-04-17T07:11:12.972Z,25.27
2018-04-17T07:13:40.513Z,23.40
2018-04-17T07:16:08.390Z,27.80
2018-04-17T07:18:35.921Z,31.33
2018-04-17T07:21:03.451Z,27.90
2018-04-17T07:23:30.958Z,20.60
2018-04-17T07:25:58.640Z,29.50
2018-04-17T07:28:26.142Z,24.35
2018-04-17T07:30:53.675Z,21.85
2018-04-17T07:33:21.965Z,28.15
2018-04-17T07:35:49.843Z,19.60
2018-04-17T07:38:17.355Z,17.75
2018-04-17T07:40:44.845Z,28.73
2018-04-17T07:43:12.322Z,22.42
2018-04-17T07:45:39.807Z,20.27
2018-04-17T07:48:22.954Z,20.50
2018-04-17T07:50:50.472Z,16.85
2018-04-17T07:53:17.992Z,21.67
2018-04-17T07:55:45.538Z,21.80
2018-04-17T07:58:13.114Z,17.67
2018-04-17T08:00:41.414Z,20.35
2018-04-17T08:03:08.906Z,15.90
2018-04-17T08:05:36.400Z,18.65
2018-04-17T08:08:03.891Z,18.30
2018-04-17T08:10:32.172Z,17.50
2018-04-17T08:12:59.653Z,13.45
2018-04-17T08:15:27.182Z,22.25
2018-04-17T08:17:54.708Z,16.50
2018-04-17T08:20:22.280Z,15.45
2018-04-17T08:22:50.550Z,16.20
2018-04-17T08:25:18.030Z,22.98
2018-04-17T08:27:45.513Z,17.77
2018-04-17T08:30:13.014Z,26.02
2018-04-17T08:32:40.510Z,21.90
2018-04-17T08:35:08.012Z,36.05
2018-04-17T08:37:35.497Z,55.75
2018-04-17T08:40:02.989Z,52.85
2018-04-17T08:42:30.489Z,22.80
2018-04-17T08:44:58.733Z,21.23
2018-04-17T08:47:26.257Z,21.67
2018-04-17T08:49:53.752Z,17.02
2018-04-17T08:52:21.285Z,19.50
2018-04-17T08:54:49.578Z,17.08
2018-04-17T08:57:17.084Z,22.17
2018-04-17T08:59:44.641Z,17.92
2018-04-17T09:02:12.149Z,27.33
2018-04-17T09:04:40.426Z,20.15
2018-04-17T09:07:08.717Z,17.35
2018-04-17T09:09:36.973Z,21.90
2018-04-17T09:12:04.520Z,25.42
2018-04-17T09:14:32.820Z,32.33
2018-04-17T09:17:01.090Z,26.83
2018-04-17T09:19:29.356Z,17.80
2018-04-17T09:21:56.856Z,23.45
2018-04-17T09:24:24.364Z,23.80
2018-04-17T09:26:52.008Z,29.17
2018-04-17T09:29:19.546Z,23.42
2018-04-17T09:31:47.841Z,26.10
2018-04-17T09:34:15.372Z,30.20
2018-04-17T09:36:42.941Z,26.20
2018-04-17T09:39:10.455Z,28.38
2018-04-17T09:41:37.956Z,26.25
2018-04-17T09:44:05.462Z,17.62
2018-04-17T09:46:33.058Z,29.10
2018-04-17T09:49:00.576Z,20.10
2018-04-17T09:51:28.830Z,24.63
2018-04-17T09:53:56.314Z,23.00
2018-04-17T09:56:23.908Z,22.85
2018-04-17T09:58:52.192Z,32.25
2018-04-17T10:01:22.255Z,26.27
2018-04-17T10:03:49.794Z,24.77
2018-04-17T10:06:17.325Z,19.62
2018-04-17T10:08:44.832Z,31.12
2018-04-17T10:11:12.377Z,17.48
2018-04-17T10:13:39.872Z,14.95
2018-04-17T10:16:08.137Z,21.67
2018-04-17T10:18:35.621Z,26.40
2018-04-17T10:21:03.150Z,16.62
2018-04-17T10:23:30.699Z,18.20
2018-04-17T10:25:58.671Z,23.62
2018-04-17T10:28:26.153Z,16.33
2018-04-17T10:30:53.671Z,22.17
2018-04-17T10:33:21.173Z,17.00
2018-04-17T10:35:49.425Z,20.58
2018-04-17T10:38:16.897Z,17.37
2018-04-17T10:40:44.421Z,23.02
2018-04-17T10:43:11.926Z,16.42
2018-04-17T10:45:40.188Z,14.70
2018-04-17T10:48:07.690Z,15.30
2018-04-17T10:50:35.174Z,19.77
2018-04-17T10:53:02.705Z,15.82
2018-04-17T10:55:30.186Z,26.60
2018-04-17T10:57:57.776Z,24.33
2018-04-17T11:00:25.274Z,20.60
2018-04-17T11:02:53.767Z,23.80
2018-04-17T11:05:21.241Z,25.27
2018-04-17T11:07:49.546Z,22.23
2018-04-17T11:10:17.041Z,25.37
2018-04-17T11:12:44.537Z,19.77
2018-04-17T11:15:12.057Z,23.73
2018-04-17T11:17:39.552Z,23.83
2018-04-17T11:20:07.825Z,27.57
2018-04-17T11:22:36.139Z,27.87
2018-04-17T11:25:03.648Z,25.27
2018-04-17T11:27:31.208Z,26.43
2018-04-17T11:29:59.509Z,21.93
2018-04-17T11:32:27.778Z,14.63
2018-04-17T11:34:56.057Z,15.43
2018-04-17T11:37:24.349Z,18.97
2018-04-17T11:42:48.163Z,23.00
2018-04-17T11:45:17.585Z,20.90
2018-04-17T11:47:46.095Z,28.23
2018-04-17T11:50:13.604Z,34.07
2018-04-17T11:52:42.160Z,24.00
2018-04-17T11:55:10.326Z,16.93
2018-04-17T11:57:38.720Z,24.80
2018-04-17T12:00:07.028Z,32.40
2018-04-17T12:02:35.668Z,25.43
2018-04-17T12:05:04.927Z,17.67
2018-04-17T12:07:32.428Z,24.57
2018-04-17T12:09:59.929Z,21.13
2018-04-17T12:12:27.448Z,29.10
2018-04-17T12:14:54.961Z,29.13
2018-04-17T12:17:22.520Z,25.27
2018-04-17T12:19:50.011Z,22.27
2018-04-17T12:22:17.582Z,26.13
2018-04-17T12:24:45.133Z,21.73
2018-04-17T12:27:12.646Z,24.20
2018-04-17T12:29:40.174Z,26.70
2018-04-17T12:32:08.454Z,20.20
2018-04-17T12:34:36.835Z,26.50
2018-04-17T12:37:04.332Z,23.10
2018-04-17T12:39:31.832Z,24.53
2018-04-17T12:41:59.368Z,23.17
2018-04-17T12:44:26.930Z,21.10
2018-04-17T12:46:54.442Z,21.53
2018-04-17T12:49:21.921Z,22.90
2018-04-17T12:51:49.416Z,24.30
2018-04-17T12:54:16.925Z,29.67
2018-04-17T12:56:44.399Z,19.47
2018-04-17T12:59:11.912Z,19.23
2018-04-17T13:01:39.462Z,17.77
2018-04-17T13:04:06.940Z,16.97
2018-04-17T13:06:35.205Z,23.83
2018-04-17T13:09:02.791Z,14.80
2018-04-17T13:11:31.041Z,21.03
2018-04-17T13:14:00.024Z,16.73
2018-04-17T13:16:28.416Z,24.43
2018-04-17T13:18:55.920Z,16.00
2018-04-17T13:21:23.453Z,20.93
2018-04-17T13:23:51.748Z,17.13
2018-04-17T13:26:19.265Z,26.67
2018-04-17T13:28:46.895Z,16.33
2018-04-17T13:31:14.385Z,16.03
2018-04-17T13:33:41.878Z,12.27
2018-04-17T13:36:10.235Z,13.53
2018-04-17T13:38:37.720Z,11.33
2018-04-17T13:41:05.993Z,16.23
2018-04-17T13:43:34.248Z,29.00
2018-04-17T13:46:02.136Z,14.10
2018-04-17T13:48:30.404Z,19.30
2018-04-17T13:50:58.746Z,10.90
2018-04-17T13:53:26.237Z,17.23
2018-04-17T13:55:54.209Z,13.80
2018-04-17T13:58:22.459Z,18.13
2018-04-17T14:00:49.933Z,14.00
2018-04-17T14:03:17.418Z,24.00
2018-04-17T14:05:44.913Z,10.80
2018-04-17T14:08:12.406Z,12.90
2018-04-17T14:10:39.960Z,16.73
2018-04-17T14:13:07.441Z,26.20
2018-04-17T14:15:35.710Z,11.07
2018-04-17T14:18:03.194Z,10.97
2018-04-17T14:20:31.479Z,16.73
2018-04-17T14:22:58.962Z,13.30
2018-04-17T14:25:26.493Z,13.73
2018-04-17T14:27:54.754Z,15.67
2018-04-17T14:30:23.066Z,14.67
2018-04-17T14:32:50.634Z,15.57
2018-04-17T14:35:18.130Z,13.17
2018-04-17T14:37:45.632Z,14.60
2018-04-17T14:40:13.130Z,9.87
2018-04-17T14:42:40.605Z,16.33
2018-04-17T14:45:08.084Z,16.50
2018-04-17T14:47:36.352Z,11.10
2018-04-17T14:50:03.835Z,13.60
2018-04-17T14:52:32.098Z,10.60
2018-04-17T14:54:59.609Z,15.83
2018-04-17T14:57:27.118Z,8.10
2018-04-17T14:59:55.399Z,16.83
2018-04-17T15:02:23.672Z,8.67
2018-04-17T15:04:51.161Z,10.20
2018-04-17T15:07:18.664Z,11.13
2018-04-17T15:09:46.474Z,16.40
2018-04-17T15:12:13.977Z,9.70
2018-04-17T15:14:41.522Z,10.87
2018-04-17T15:17:09.045Z,14.57
2018-04-17T15:19:37.318Z,11.70
2018-04-17T15:22:05.563Z,12.97
2018-04-17T15:24:33.065Z,15.80
2018-04-17T15:27:01.317Z,11.23
2018-04-17T15:29:28.945Z,9.87
2018-04-17T15:31:56.441Z,12.93
2018-04-17T15:34:24.719Z,16.33
2018-04-17T15:36:52.202Z,7.57
2018-04-17T15:39:19.712Z,8.20
2018-04-17T15:41:47.277Z,15.87
2018-04-17T15:44:14.783Z,11.83
2018-04-17T15:46:42.277Z,12.53
2018-04-17T15:49:09.781Z,10.57
2018-04-17T15:51:37.261Z,10.80
2018-04-17T15:54:04.736Z,12.23
2018-04-17T15:56:32.237Z,16.57
2018-04-17T15:59:00.040Z,19.70
2018-04-17T16:01:28.304Z,11.77
2018-04-17T16:03:56.593Z,9.03
2018-04-17T16:06:24.860Z,11.00
2018-04-17T16:08:52.373Z,12.03
2018-04-17T16:11:19.925Z,19.73
2018-04-17T16:13:47.459Z,9.07
2018-04-17T16:16:15.846Z,17.90
2018-04-17T16:18:43.342Z,18.03
2018-04-17T16:21:10.830Z,14.07
2018-04-17T16:23:38.322Z,10.60
2018-04-17T16:26:05.809Z,12.10
2018-04-17T16:28:33.304Z,12.67
2018-04-17T16:31:00.810Z,15.30
2018-04-17T16:33:28.285Z,14.77
2018-04-17T16:35:56.578Z,13.20
2018-04-17T16:38:24.089Z,17.30
2018-04-17T16:40:51.654Z,14.57
2018-04-17T16:43:19.198Z,22.67
2018-04-17T16:45:47.458Z,23.60
2018-04-17T16:48:14.983Z,15.50
2018-04-17T16:50:42.507Z,18.57
2018-04-17T16:53:10.007Z,19.50
2018-04-17T16:55:37.518Z,14.90
2018-04-17T16:58:05.775Z,21.20
2018-04-17T17:00:33.273Z,16.17
2018-04-17T17:03:00.752Z,12.93
2018-04-17T17:05:28.238Z,12.33
2018-04-17T17:07:55.735Z,20.60
2018-04-17T17:10:23.984Z,17.10
2018-04-17T17:12:51.531Z,22.13
2018-04-17T17:15:19.027Z,28.87
2018-04-17T17:17:47.279Z,26.43
2018-04-17T17:20:14.766Z,19.93
2018-04-17T17:22:43.108Z,24.10
2018-04-17T17:25:10.613Z,22.37
2018-04-17T17:27:38.916Z,15.17
2018-04-17T17:30:06.598Z,34.00
2018-04-17T17:32:34.126Z,15.47
2018-04-17T17:35:02.373Z,23.20
2018-04-17T17:37:29.880Z,24.47
2018-04-17T17:39:57.440Z,24.53
2018-04-17T17:42:25.065Z,15.23
2018-04-17T17:44:53.401Z,24.30
2018-04-17T17:47:20.906Z,18.10
2018-04-17T17:49:49.215Z,22.33
2018-04-17T17:52:16.767Z,29.03
2018-04-17T17:54:44.298Z,21.90
2018-04-17T17:57:12.560Z,21.57
2018-04-17T17:59:40.053Z,18.97
2018-04-17T18:02:07.557Z,19.40
2018-04-17T18:04:35.038Z,29.77
2018-04-17T18:07:02.577Z,31.83
2018-04-17T18:09:30.835Z,20.57
2018-04-17T18:11:58.332Z,29.53
2018-04-17T18:14:25.837Z,24.47
2018-04-17T18:16:53.527Z,20.10
2018-04-17T18:19:21.017Z,20.93
2018-04-17T18:21:48.504Z,20.30
2018-04-17T18:24:16.064Z,23.43
2018-04-17T18:26:44.317Z,28.90
2018-04-17T18:29:11.820Z,20.83
2018-04-17T18:31:39.369Z,25.17
2018-04-17T18:34:06.887Z,25.87
2018-04-17T18:36:34.411Z,21.10
2018-04-17T18:39:01.954Z,25.60
2018-04-17T18:41:29.439Z,24.47
2018-04-17T18:43:57.002Z,40.13
2018-04-17T18:46:24.536Z,34.00
2018-04-17T18:48:52.034Z,35.20
2018-04-17T18:51:19.526Z,29.70
2018-04-17T18:53:47.840Z,27.13
2018-04-17T18:56:15.382Z,23.93
2018-04-17T18:58:43.062Z,27.50
2018-04-17T19:01:10.572Z,30.13
2018-04-17T19:03:38.042Z,25.10
2018-04-17T19:06:06.318Z,23.63
2018-04-17T19:08:33.827Z,23.07
2018-04-17T19:11:01.312Z,22.40
2018-04-17T19:13:28.826Z,28.27
2018-04-17T19:15:56.438Z,21.87
2018-04-17T19:18:23.935Z,27.20
2018-04-17T19:20:51.444Z,28.60
2018-04-17T19:23:19.726Z,24.97
2018-04-17T19:25:47.274Z,23.03
2018-04-17T19:28:14.823Z,30.40
2018-04-17T19:30:42.923Z,32.97
2018-04-17T19:33:10.431Z,29.77
2018-04-17T19:35:37.932Z,30.40
2018-04-17T19:38:05.468Z,28.10
2018-04-17T19:40:32.956Z,29.20
2018-04-17T19:43:00.545Z,24.80
2018-04-17T19:45:28.140Z,26.23
2018-04-17T19:47:55.662Z,31.00
2018-04-17T19:50:23.148Z,27.70
2018-04-17T19:52:51.543Z,22.00
2018-04-17T19:55:19.030Z,19.17
2018-04-17T19:57:46.536Z,25.23
2018-04-17T20:00:14.806Z,24.50
2018-04-17T20:02:42.339Z,19.17
2018-04-17T20:05:09.837Z,21.03
2018-04-17T20:07:38.108Z,18.10
2018-04-17T20:10:06.338Z,28.77
2018-04-17T20:12:38.520Z,22.07
2018-04-17T20:15:07.721Z,22.43
2018-04-17T20:17:35.208Z,21.80
2018-04-17T20:20:03.489Z,23.43
2018-04-17T20:22:32.769Z,17.63
2018-04-17T20:25:00.357Z,34.53
2018-04-17T20:27:27.857Z,38.80
2018-04-17T20:29:55.341Z,25.77
2018-04-17T20:32:22.898Z,31.60
2018-04-17T20:34:50.456Z,27.23
2018-04-17T20:37:17.965Z,27.47
2018-04-17T20:39:45.481Z,26.10
2018-04-17T20:42:13.832Z,29.67
2018-04-17T20:44:42.159Z,23.60
2018-04-17T20:47:09.639Z,22.93
2018-04-17T20:49:37.139Z,22.83
2018-04-17T20:52:04.632Z,20.80
2018-04-17T20:54:32.116Z,34.70
2018-04-17T20:57:00.394Z,30.23
2018-04-17T20:59:28.659Z,28.80
2018-04-17T21:01:56.919Z,28.20
2018-04-17T21:04:24.418Z,29.83
2018-04-17T21:06:51.916Z,25.83
2018-04-17T21:09:19.390Z,28.13
2018-04-17T21:11:46.875Z,28.77
2018-04-17T21:14:15.132Z,30.87
2018-04-17T21:16:42.601Z,25.07
2018-04-17T21:19:10.090Z,30.43
2018-04-17T21:21:37.583Z,25.23
2018-04-17T21:24:05.052Z,23.77
2018-04-17T21:26:32.556Z,28.00
2018-04-17T21:29:00.169Z,21.80
2018-04-17T21:31:27.653Z,29.40
2018-04-17T21:33:55.110Z,25.70
2018-04-17T21:36:22.617Z,17.50
2018-04-17T21:38:50.110Z,22.10
2018-04-17T21:41:17.617Z,14.40
2018-04-17T21:43:45.108Z,17.37
2018-04-17T21:46:12.730Z,15.20
2018-04-17T21:48:40.238Z,12.20
2018-04-17T21:51:07.741Z,20.47
2018-04-17T21:53:35.990Z,15.17
2018-04-17T21:56:03.471Z,24.47
2018-04-17T21:58:31.774Z,17.87
2018-04-17T22:00:59.259Z,23.33
2018-04-17T22:03:26.760Z,21.07
2018-04-17T22:05:54.654Z,15.70
2018-04-17T22:08:22.910Z,18.50
2018-04-17T22:10:50.736Z,19.10
2018-04-17T22:13:18.210Z,18.33
2018-04-17T22:15:45.687Z,12.17
2018-04-17T22:18:13.971Z,15.60
2018-04-17T22:20:42.222Z,11.90
2018-04-17T22:23:09.722Z,15.50
2018-04-17T22:25:37.960Z,19.50
2018-04-17T22:28:05.469Z,11.57
2018-04-17T22:30:33.041Z,16.17
2018-04-17T22:33:00.561Z,18.37
2018-04-17T22:35:28.065Z,25.37
2018-04-17T22:37:55.553Z,16.27
2018-04-17T22:40:23.050Z,13.30
2018-04-17T22:42:51.286Z,10.27
2018-04-17T22:45:18.890Z,11.10
2018-04-17T22:47:47.179Z,19.50
2018-04-17T22:50:14.688Z,16.83
2018-04-17T22:52:42.200Z,13.50
2018-04-17T22:55:09.678Z,11.50
2018-04-17T22:57:37.155Z,10.87
2018-04-17T23:00:04.659Z,9.30
2018-04-17T23:02:32.897Z,12.23
2018-04-17T23:05:00.379Z,10.60
2018-04-17T23:07:27.887Z,9.13
2018-04-17T23:09:55.659Z,12.90
2018-04-17T23:12:23.160Z,17.03
2018-04-17T23:14:50.648Z,9.67
2018-04-17T23:17:18.140Z,10.50
2018-04-17T23:19:45.643Z,11.93
2018-04-17T23:22:14.938Z,13.33
2018-04-17T23:24:42.435Z,13.47
2018-04-17T23:27:09.917Z,10.90
2018-04-17T23:29:37.392Z,9.23
2018-04-17T23:32:04.875Z,15.53
2018-04-17T23:34:32.340Z,8.50
2018-04-17T23:37:00.163Z,14.97
2018-04-17T23:39:27.659Z,13.57
2018-04-17T23:41:55.167Z,9.27
2018-04-17T23:44:22.628Z,8.53
2018-04-17T23:46:50.146Z,12.57
2018-04-17T23:49:17.681Z,14.20
2018-04-17T23:51:45.140Z,9.80
2018-04-17T23:54:12.611Z,16.97
2018-04-17T23:56:40.874Z,19.20
2018-04-17T23:59:08.347Z,10.13
